Aktuální počasí v Česku a ve světě - METAR

Seznam meteostanic umístěných nejčasteji na letišti v ČR a ve světě

Vyhledat místa podle abecedy:
A B C D E F G H I J K L M N O P Q R S T U V W X Y Z

Filtrovat:

ID stanice:
a/nebo
Název místa (fulltext):
 
Místo (ID)Naposledy načteno 
Odense (EKOD) 15.04.2024 15:50 UTC Zobrazit METAR
EKOD 151550Z 16011KT 120V190 5000 -RA FEW022 OVC037 07/06 Q0999
Odesa (UKOO) 01.02.2018 08:00 UTC Zobrazit METAR
UKOO 010800Z CAVOK 07/04 Q1018 R16/190056 NOSIG
Osijek (LDOS) 15.04.2024 21:00 UTC Zobrazit METAR
LDOS 152100Z 24009KT CAVOK 18/06 Q1007
Oslo (ENGM) 15.04.2024 20:50 UTC Zobrazit METAR
ENGM 152050Z 02004KT CAVOK 02/M05 Q1001 NOSIG
Ostend (EBOS) 15.04.2024 08:50 UTC Zobrazit METAR
EBOS 150850Z 23019G29KT 9000 -SHRA SCT022 BKN030 10/07 Q1007 NOSIG
Ostrava (LKMT) 15.04.2024 21:00 UTC Zobrazit METAR
LKMT 152100Z 22010KT 9999 -RA FEW026 13/11 Q1003 NOSIG
Ottawa (CYOW) 15.04.2024 21:00 UTC Zobrazit METAR
CYOW 152100Z 33009G15KT 15SM -SHRA OVC035 10/06 A2987 RMK SC8 CVCTV CLDS EMBD SLP121
Ouagadougou (DFFD) 15.04.2024 21:00 UTC Zobrazit METAR
DFFD 152100Z 02005KT CAVOK 32/05 Q1012 NOSIG
Oulu (EFOU) 15.04.2024 20:50 UTC Zobrazit METAR
EFOU 152050Z AUTO 33006KT 9999 -RA OVC045 03/M00 Q0999
Reklama

Krásné fotografie přírody - (nejen) tapety na pozadí do počítače

Článek
Fotogalerie jarních květin
13. dubna 2023 12:19
Článek
Fotografie slunečné zimní krajiny
7. prosince 2022 17:13
Článek
Obrázky na téma slunečno
25. srpna 2022 05:03
Článek
Obrázky květin
5. června 2022 12:12

Vyhledat
Přidejte si Počasí Slunečno na svůj Facebook
Facebook Počasí Slunečno.cz
Aplikace pro Windows 10/11 nebo chytré mobilní telefony
Stáhněte si aplikaci Slunečno.cz na Microsoft Store Stáhněte si aplikaci Slunečno.cz na Google Play